sensor_id;sensor_type;location;lat;lon;timestamp;pressure;altitude;pressure_sealevel;temperature;humidity
57574;BME280;43409;48.858;21.906;2022-08-14T00:00:16;98116.41;;;25.79;51.11
57574;BME280;43409;48.858;21.906;2022-08-14T00:02:42;98114.53;;;25.80;51.25
57574;BME280;43409;48.858;21.906;2022-08-14T00:05:10;98109.97;;;25.80;51.30
57574;BME280;43409;48.858;21.906;2022-08-14T00:07:36;98112.44;;;25.77;51.33
57574;BME280;43409;48.858;21.906;2022-08-14T00:10:04;98109.97;;;25.80;51.26
57574;BME280;43409;48.858;21.906;2022-08-14T00:12:32;98109.16;;;25.80;51.08
57574;BME280;43409;48.858;21.906;2022-08-14T00:14:59;98108.34;;;25.79;51.23
57574;BME280;43409;48.858;21.906;2022-08-14T00:17:25;98102.97;;;25.79;51.11
57574;BME280;43409;48.858;21.906;2022-08-14T00:19:51;98106.78;;;25.78;51.09
57574;BME280;43409;48.858;21.906;2022-08-14T00:22:16;98099.22;;;25.80;50.81
57574;BME280;43409;48.858;21.906;2022-08-14T00:24:43;98081.00;;;25.77;50.98
57574;BME280;43409;48.858;21.906;2022-08-14T00:27:09;98086.88;;;25.79;50.97
57574;BME280;43409;48.858;21.906;2022-08-14T00:29:34;98090.38;;;25.80;51.01
57574;BME280;43409;48.858;21.906;2022-08-14T00:32:00;98088.75;;;25.79;50.91
57574;BME280;43409;48.858;21.906;2022-08-14T00:34:25;98085.28;;;25.78;51.35
57574;BME280;43409;48.858;21.906;2022-08-14T00:36:51;98073.44;;;25.79;51.02
57574;BME280;43409;48.858;21.906;2022-08-14T00:39:16;98079.91;;;25.78;51.08
57574;BME280;43409;48.858;21.906;2022-08-14T00:41:42;98074.03;;;25.76;51.28
57574;BME280;43409;48.858;21.906;2022-08-14T00:44:08;98069.19;;;25.78;51.08
57574;BME280;43409;48.858;21.906;2022-08-14T00:46:33;98071.88;;;25.78;50.95
57574;BME280;43409;48.858;21.906;2022-08-14T00:49:00;98074.56;;;25.78;50.86
57574;BME280;43409;48.858;21.906;2022-08-14T00:51:26;98065.19;;;25.76;51.13
57574;BME280;43409;48.858;21.906;2022-08-14T00:53:53;98066.78;;;25.77;51.00
57574;BME280;43409;48.858;21.906;2022-08-14T00:56:19;98075.63;;;25.77;50.99
57574;BME280;43409;48.858;21.906;2022-08-14T00:58:45;98079.91;;;25.78;51.09
57574;BME280;43409;48.858;21.906;2022-08-14T01:01:11;98079.09;;;25.78;51.18
57574;BME280;43409;48.858;21.906;2022-08-14T01:03:39;98087.16;;;25.78;51.03
57574;BME280;43409;48.858;21.906;2022-08-14T01:06:10;98089.06;;;25.77;51.41
57574;BME280;43409;48.858;21.906;2022-08-14T01:08:37;98094.44;;;25.77;51.45
57574;BME280;43409;48.858;21.906;2022-08-14T01:11:03;98093.63;;;25.77;51.33
57574;BME280;43409;48.858;21.906;2022-08-14T01:13:32;98094.44;;;25.77;51.05
57574;BME280;43409;48.858;21.906;2022-08-14T01:16:01;98088.56;;;25.75;51.45
57574;BME280;43409;48.858;21.906;2022-08-14T01:18:28;98080.50;;;25.75;51.34
57574;BME280;43409;48.858;21.906;2022-08-14T01:21:14;98080.50;;;25.75;51.43
57574;BME280;43409;48.858;21.906;2022-08-14T01:23:46;98075.13;;;25.75;51.40
57574;BME280;43409;48.858;21.906;2022-08-14T01:26:13;98073.25;;;25.76;51.42
57574;BME280;43409;48.858;21.906;2022-08-14T01:28:41;98075.13;;;25.75;51.48
57574;BME280;43409;48.858;21.906;2022-08-14T01:31:13;98076.22;;;25.74;51.26
57574;BME280;43409;48.858;21.906;2022-08-14T01:33:41;98078.91;;;25.74;51.40
57574;BME280;43409;48.858;21.906;2022-08-14T01:36:10;98089.94;;;25.72;51.35
57574;BME280;43409;48.858;21.906;2022-08-14T01:38:38;98090.13;;;25.76;51.12
57574;BME280;43409;48.858;21.906;2022-08-14T01:41:07;98078.91;;;25.74;51.38
57574;BME280;43409;48.858;21.906;2022-08-14T01:43:48;98086.97;;;25.74;51.53
57574;BME280;43409;48.858;21.906;2022-08-14T01:46:19;98076.50;;;25.72;51.57
57574;BME280;43409;48.858;21.906;2022-08-14T01:48:45;98085.34;;;25.73;51.12
57574;BME280;43409;48.858;21.906;2022-08-14T01:51:14;98088.03;;;25.73;51.20
57574;BME280;43409;48.858;21.906;2022-08-14T01:53:44;98087.75;;;25.74;51.18
57574;BME280;43409;48.858;21.906;2022-08-14T01:56:12;98092.63;;;25.72;51.07
57574;BME280;43409;48.858;21.906;2022-08-14T01:58:46;98075.72;;;25.72;51.08
57574;BME280;43409;48.858;21.906;2022-08-14T02:01:18;98076.50;;;25.72;51.19
57574;BME280;43409;48.858;21.906;2022-08-14T02:03:44;98077.28;;;25.73;51.35
57574;BME280;43409;48.858;21.906;2022-08-14T02:06:11;98074.13;;;25.71;51.61
57574;BME280;43409;48.858;21.906;2022-08-14T02:08:37;98069.53;;;25.71;51.06
57574;BME280;43409;48.858;21.906;2022-08-14T02:11:05;98069.53;;;25.71;51.12
57574;BME280;43409;48.858;21.906;2022-08-14T02:13:48;98072.22;;;25.71;50.99
57574;BME280;43409;48.858;21.906;2022-08-14T02:16:20;98073.63;;;25.69;51.07
57574;BME280;43409;48.858;21.906;2022-08-14T02:18:53;98072.22;;;25.71;51.45
57574;BME280;43409;48.858;21.906;2022-08-14T02:21:19;98075.72;;;25.72;51.08
57574;BME280;43409;48.858;21.906;2022-08-14T02:23:46;98075.72;;;25.72;51.06
57574;BME280;43409;48.858;21.906;2022-08-14T02:26:18;98079.00;;;25.69;51.09
57574;BME280;43409;48.858;21.906;2022-08-14T02:28:44;98071.72;;;25.69;51.30
57574;BME280;43409;48.858;21.906;2022-08-14T02:31:11;98079.78;;;25.69;51.05
57574;BME280;43409;48.858;21.906;2022-08-14T02:33:37;98076.06;;;25.65;51.14
57574;BME280;43409;48.858;21.906;2022-08-14T02:36:03;98081.69;;;25.69;51.34
57574;BME280;43409;48.858;21.906;2022-08-14T02:38:29;98073.09;;;25.67;51.19
57574;BME280;43409;48.858;21.906;2022-08-14T02:40:56;98072.81;;;25.68;51.24
57574;BME280;43409;48.858;21.906;2022-08-14T02:43:22;98072.00;;;25.68;51.36
57574;BME280;43409;48.858;21.906;2022-08-14T02:45:47;98072.81;;;25.68;51.08
57574;BME280;43409;48.858;21.906;2022-08-14T02:48:13;98069.31;;;25.68;51.21
57574;BME280;43409;48.858;21.906;2022-08-14T02:50:39;98071.72;;;25.69;50.77
57574;BME280;43409;48.858;21.906;2022-08-14T02:53:06;98074.69;;;25.68;50.99
57574;BME280;43409;48.858;21.906;2022-08-14T02:55:32;98065.56;;;25.69;51.14
57574;BME280;43409;48.858;21.906;2022-08-14T02:57:58;98070.94;;;25.69;51.13
57574;BME280;43409;48.858;21.906;2022-08-14T03:00:24;98068.84;;;25.66;50.90
57574;BME280;43409;48.858;21.906;2022-08-14T03:02:49;98073.69;;;25.64;51.44
57574;BME280;43409;48.858;21.906;2022-08-14T03:05:16;98076.66;;;25.62;51.54
57574;BME280;43409;48.858;21.906;2022-08-14T03:07:43;98074.50;;;25.64;51.00
57574;BME280;43409;48.858;21.906;2022-08-14T03:10:09;98076.06;;;25.65;51.01
57574;BME280;43409;48.858;21.906;2022-08-14T03:12:35;98066.63;;;25.68;50.91
57574;BME280;43409;48.858;21.906;2022-08-14T03:15:02;98071.81;;;25.64;50.93
57574;BME280;43409;48.858;21.906;2022-08-14T03:17:33;98070.50;;;25.62;50.96
57574;BME280;43409;48.858;21.906;2022-08-14T03:19:59;98071.56;;;25.61;50.97
57574;BME280;43409;48.858;21.906;2022-08-14T03:22:25;98080.16;;;25.63;50.98
57574;BME280;43409;48.858;21.906;2022-08-14T03:24:52;98082.25;;;25.66;51.03
57574;BME280;43409;48.858;21.906;2022-08-14T03:27:18;98065.63;;;25.64;50.70
57574;BME280;43409;48.858;21.906;2022-08-14T03:29:43;98064.53;;;25.65;50.79
57574;BME280;43409;48.858;21.906;2022-08-14T03:32:09;98061.34;;;25.63;50.83
57574;BME280;43409;48.858;21.906;2022-08-14T03:34:34;98075.28;;;25.65;50.95
57574;BME280;43409;48.858;21.906;2022-08-14T03:37:01;98069.72;;;25.61;50.68
57574;BME280;43409;48.858;21.906;2022-08-14T03:39:27;98083.63;;;25.63;50.77
57574;BME280;43409;48.858;21.906;2022-08-14T03:41:55;98079.63;;;25.61;50.62
57574;BME280;43409;48.858;21.906;2022-08-14T03:44:21;98076.16;;;25.60;50.82
57574;BME280;43409;48.858;21.906;2022-08-14T03:46:47;98082.31;;;25.61;50.85
57574;BME280;43409;48.858;21.906;2022-08-14T03:49:13;98071.09;;;25.59;50.72
57574;BME280;43409;48.858;21.906;2022-08-14T03:51:46;98085.00;;;25.61;50.64
57574;BME280;43409;48.858;21.906;2022-08-14T03:54:12;98082.31;;;25.61;50.89
57574;BME280;43409;48.858;21.906;2022-08-14T03:56:37;98078.84;;;25.60;50.58
57574;BME280;43409;48.858;21.906;2022-08-14T03:59:05;98073.75;;;25.59;50.92
57574;BME280;43409;48.858;21.906;2022-08-14T04:01:39;98078.34;;;25.58;51.08
57574;BME280;43409;48.858;21.906;2022-08-14T04:04:06;98087.19;;;25.59;50.93
57574;BME280;43409;48.858;21.906;2022-08-14T04:06:34;98078.06;;;25.60;50.58
57574;BME280;43409;48.858;21.906;2022-08-14T04:09:00;98078.84;;;25.60;50.91
57574;BME280;43409;48.858;21.906;2022-08-14T04:11:26;98081.22;;;25.62;50.95
57574;BME280;43409;48.858;21.906;2022-08-14T04:13:51;98088.72;;;25.65;50.95
57574;BME280;43409;48.858;21.906;2022-08-14T04:16:18;98090.72;;;25.73;50.42
57574;BME280;43409;48.858;21.906;2022-08-14T04:18:47;98089.56;;;25.79;50.02
57574;BME280;43409;48.858;21.906;2022-08-14T04:21:14;98084.19;;;25.79;49.94
57574;BME280;43409;48.858;21.906;2022-08-14T04:23:41;98082.53;;;25.83;50.04
57574;BME280;43409;48.858;21.906;2022-08-14T04:26:09;98090.56;;;25.83;49.97
57574;BME280;43409;48.858;21.906;2022-08-14T04:28:35;98091.06;;;25.85;50.09
57574;BME280;43409;48.858;21.906;2022-08-14T04:31:03;98084.53;;;25.91;50.08
57574;BME280;43409;48.858;21.906;2022-08-14T04:33:28;98085.53;;;25.96;49.79
57574;BME280;43409;48.858;21.906;2022-08-14T04:35:54;98085.78;;;25.99;49.72
57574;BME280;43409;48.858;21.906;2022-08-14T04:38:21;98092.94;;;26.04;49.42
57574;BME280;43409;48.858;21.906;2022-08-14T04:41:05;98092.38;;;26.07;49.57
57574;BME280;43409;48.858;21.906;2022-08-14T04:43:49;98090.34;;;25.99;49.70
57574;BME280;43409;48.858;21.906;2022-08-14T04:46:19;98082.84;;;25.96;49.49
57574;BME280;43409;48.858;21.906;2022-08-14T04:48:45;98093.09;;;25.94;49.93
57574;BME280;43409;48.858;21.906;2022-08-14T04:51:12;98099.06;;;25.90;49.90
57574;BME280;43409;48.858;21.906;2022-08-14T04:53:40;98096.44;;;25.85;49.84
57574;BME280;43409;48.858;21.906;2022-08-14T04:56:12;98101.81;;;25.85;50.10
57574;BME280;43409;48.858;21.906;2022-08-14T04:58:38;98103.50;;;25.81;49.94
57574;BME280;43409;48.858;21.906;2022-08-14T05:01:05;98112.34;;;25.82;49.79
57574;BME280;43409;48.858;21.906;2022-08-14T05:03:33;98109.97;;;25.80;49.81
57574;BME280;43409;48.858;21.906;2022-08-14T05:06:04;98102.97;;;25.79;50.14
57574;BME280;43409;48.858;21.906;2022-08-14T05:08:31;98099.81;;;25.77;49.97
57574;BME280;43409;48.858;21.906;2022-08-14T05:10:58;98097.59;;;25.79;49.95
57574;BME280;43409;48.858;21.906;2022-08-14T05:13:28;98106.78;;;25.78;49.98
57574;BME280;43409;48.858;21.906;2022-08-14T05:15:56;98115.91;;;25.77;50.00
57574;BME280;43409;48.858;21.906;2022-08-14T05:18:25;98109.47;;;25.78;50.16
57574;BME280;43409;48.858;21.906;2022-08-14T05:20:55;98108.16;;;25.76;49.85
57574;BME280;43409;48.858;21.906;2022-08-14T05:23:23;98104.69;;;25.75;49.87
57574;BME280;43409;48.858;21.906;2022-08-14T05:25:50;98110.84;;;25.76;49.97
57574;BME280;43409;48.858;21.906;2022-08-14T05:28:21;98099.59;;;25.73;49.98
57574;BME280;43409;48.858;21.906;2022-08-14T05:30:49;98102.00;;;25.75;49.92
57574;BME280;43409;48.858;21.906;2022-08-14T05:33:16;98105.75;;;25.74;50.05
57574;BME280;43409;48.858;21.906;2022-08-14T05:35:43;98103.84;;;25.74;50.05
57574;BME280;43409;48.858;21.906;2022-08-14T05:38:10;98111.13;;;25.74;50.35
57574;BME280;43409;48.858;21.906;2022-08-14T05:40:38;98111.13;;;25.74;49.92
57574;BME280;43409;48.858;21.906;2022-08-14T05:43:05;98105.75;;;25.74;49.98
57574;BME280;43409;48.858;21.906;2022-08-14T05:45:30;98103.06;;;25.74;49.96
57574;BME280;43409;48.858;21.906;2022-08-14T05:47:56;98091.84;;;25.72;50.16
57574;BME280;43409;48.858;21.906;2022-08-14T05:50:22;98103.06;;;25.74;49.99
57574;BME280;43409;48.858;21.906;2022-08-14T05:52:48;98095.00;;;25.74;50.11
57574;BME280;43409;48.858;21.906;2022-08-14T05:55:15;98102.00;;;25.75;49.93
57574;BME280;43409;48.858;21.906;2022-08-14T05:57:52;98107.06;;;25.77;50.15
57574;BME280;43409;48.858;21.906;2022-08-14T06:00:20;98104.38;;;25.77;50.21
57574;BME280;43409;48.858;21.906;2022-08-14T06:02:46;98106.25;;;25.76;49.97
57574;BME280;43409;48.858;21.906;2022-08-14T06:05:11;98100.59;;;25.78;50.11
57574;BME280;43409;48.858;21.906;2022-08-14T06:07:37;98103.56;;;25.76;50.21
57574;BME280;43409;48.858;21.906;2022-08-14T06:10:05;98106.78;;;25.78;50.02
57574;BME280;43409;48.858;21.906;2022-08-14T06:12:31;98100.59;;;25.78;50.07
57574;BME280;43409;48.858;21.906;2022-08-14T06:14:57;98108.34;;;25.79;49.80
57574;BME280;43409;48.858;21.906;2022-08-14T06:17:22;98103.81;;;25.80;50.12
57574;BME280;43409;48.858;21.906;2022-08-14T06:19:48;98107.28;;;25.80;50.18
57574;BME280;43409;48.858;21.906;2022-08-14T06:22:13;98104.09;;;25.78;49.96
57574;BME280;43409;48.858;21.906;2022-08-14T06:24:38;98103.50;;;25.81;50.27
57574;BME280;43409;48.858;21.906;2022-08-14T06:27:04;98104.59;;;25.80;50.34
57574;BME280;43409;48.858;21.906;2022-08-14T06:29:30;98108.88;;;25.81;50.02
57574;BME280;43409;48.858;21.906;2022-08-14T06:31:55;98104.59;;;25.80;50.34
57574;BME280;43409;48.858;21.906;2022-08-14T06:34:21;98109.38;;;25.83;50.29
57574;BME280;43409;48.858;21.906;2022-08-14T06:36:47;98107.47;;;25.84;50.33
57574;BME280;43409;48.858;21.906;2022-08-14T06:39:12;98101.31;;;25.83;50.17
57574;BME280;43409;48.858;21.906;2022-08-14T06:41:38;98096.44;;;25.85;49.91
57574;BME280;43409;48.858;21.906;2022-08-14T06:44:07;98089.50;;;25.84;50.26
57574;BME280;43409;48.858;21.906;2022-08-14T06:46:33;98093.47;;;25.87;50.18
57574;BME280;43409;48.858;21.906;2022-08-14T06:48:59;98091.00;;;25.90;50.00
57574;BME280;43409;48.858;21.906;2022-08-14T06:51:24;98085.53;;;25.96;49.70
57574;BME280;43409;48.858;21.906;2022-08-14T06:53:49;98082.78;;;26.01;49.86
57574;BME280;43409;48.858;21.906;2022-08-14T06:56:15;98075.56;;;26.01;49.61
57574;BME280;43409;48.858;21.906;2022-08-14T06:58:40;98066.66;;;26.01;49.76
57574;BME280;43409;48.858;21.906;2022-08-14T07:01:06;98069.06;;;26.02;49.66
57574;BME280;43409;48.858;21.906;2022-08-14T07:03:50;98070.97;;;26.02;49.57
57574;BME280;43409;48.858;21.906;2022-08-14T07:06:53;98072.78;;;26.06;49.75
57574;BME280;43409;48.858;21.906;2022-08-14T07:09:20;98072.78;;;26.06;49.85
57574;BME280;43409;48.858;21.906;2022-08-14T07:11:45;98070.56;;;26.08;49.53
57574;BME280;43409;48.858;21.906;2022-08-14T07:14:11;98070.09;;;26.06;49.46
57574;BME280;43409;48.858;21.906;2022-08-14T07:16:36;98073.25;;;26.08;49.67
57574;BME280;43409;48.858;21.906;2022-08-14T07:19:01;98083.22;;;26.08;49.65
57574;BME280;43409;48.858;21.906;2022-08-14T07:21:27;98084.81;;;26.09;49.45
57574;BME280;43409;48.858;21.906;2022-08-14T07:23:52;98084.81;;;26.09;49.51
57574;BME280;43409;48.858;21.906;2022-08-14T07:26:17;98079.44;;;26.09;49.76
57574;BME280;43409;48.858;21.906;2022-08-14T07:28:43;98079.94;;;26.11;49.55
57574;BME280;43409;48.858;21.906;2022-08-14T07:31:10;98078.03;;;26.12;49.76
57574;BME280;43409;48.858;21.906;2022-08-14T07:33:44;98078.84;;;26.12;49.89
57574;BME280;43409;48.858;21.906;2022-08-14T07:36:13;98079.94;;;26.11;49.44
57574;BME280;43409;48.858;21.906;2022-08-14T07:38:38;98081.03;;;26.10;49.65
57574;BME280;43409;48.858;21.906;2022-08-14T07:41:08;98078.84;;;26.12;49.33
57574;BME280;43409;48.858;21.906;2022-08-14T07:43:34;98076.66;;;26.14;49.23
57574;BME280;43409;48.858;21.906;2022-08-14T07:46:01;98071.28;;;26.14;49.35
57574;BME280;43409;48.858;21.906;2022-08-14T07:48:27;98069.09;;;26.16;49.41
57574;BME280;43409;48.858;21.906;2022-08-14T07:50:52;98056.78;;;26.15;49.13
57574;BME280;43409;48.858;21.906;2022-08-14T07:53:18;98060.53;;;26.14;49.55
57574;BME280;43409;48.858;21.906;2022-08-14T07:55:44;98071.28;;;26.14;49.57
57574;BME280;43409;48.858;21.906;2022-08-14T07:58:13;98068.59;;;26.14;49.37
57574;BME280;43409;48.858;21.906;2022-08-14T08:00:39;98067.53;;;26.15;49.38
57574;BME280;43409;48.858;21.906;2022-08-14T08:03:08;98076.06;;;26.17;49.65
57574;BME280;43409;48.858;21.906;2022-08-14T08:05:34;98073.38;;;26.17;49.30
57574;BME280;43409;48.858;21.906;2022-08-14T08:08:02;98063.22;;;26.14;49.05
57574;BME280;43409;48.858;21.906;2022-08-14T08:10:27;98062.16;;;26.15;49.47
57574;BME280;43409;48.858;21.906;2022-08-14T08:13:08;98064.53;;;26.17;49.24
57574;BME280;43409;48.858;21.906;2022-08-14T08:15:40;98066.41;;;26.16;49.24
57574;BME280;43409;48.858;21.906;2022-08-14T08:18:08;98066.41;;;26.16;49.28
57574;BME280;43409;48.858;21.906;2022-08-14T08:20:36;98069.91;;;26.17;49.17
57574;BME280;43409;48.858;21.906;2022-08-14T08:23:04;98064.84;;;26.15;49.63
57574;BME280;43409;48.858;21.906;2022-08-14T08:25:38;98064.03;;;26.15;49.59
57574;BME280;43409;48.858;21.906;2022-08-14T08:28:09;98058.94;;;26.13;49.30
57574;BME280;43409;48.858;21.906;2022-08-14T08:30:38;98056.25;;;26.13;49.41
57574;BME280;43409;48.858;21.906;2022-08-14T08:33:06;98051.47;;;26.10;49.70
57574;BME280;43409;48.858;21.906;2022-08-14T08:35:34;98052.00;;;26.12;49.13
57574;BME280;43409;48.858;21.906;2022-08-14T08:38:05;98053.06;;;26.11;49.71
57574;BME280;43409;48.858;21.906;2022-08-14T08:40:37;98051.19;;;26.12;49.81
57574;BME280;43409;48.858;21.906;2022-08-14T08:43:24;98052.00;;;26.12;49.64
57574;BME280;43409;48.858;21.906;2022-08-14T08:46:10;98046.63;;;26.12;49.30
57574;BME280;43409;48.858;21.906;2022-08-14T08:51:25;98047.09;;;26.14;49.50
57574;BME280;43409;48.858;21.906;2022-08-14T08:54:09;98037.16;;;26.15;49.44
57574;BME280;43409;48.858;21.906;2022-08-14T08:56:43;98034.75;;;26.13;49.39
57574;BME280;43409;48.858;21.906;2022-08-14T08:59:24;98027.28;;;26.10;49.92
57574;BME280;43409;48.858;21.906;2022-08-14T09:01:57;98022.13;;;26.14;49.43
57574;BME280;43409;48.858;21.906;2022-08-14T09:04:27;98019.44;;;26.14;49.83
57574;BME280;43409;48.858;21.906;2022-08-14T09:06:54;98022.13;;;26.14;49.77
57574;BME280;43409;48.858;21.906;2022-08-14T09:09:28;98014.88;;;26.14;49.51
57574;BME280;43409;48.858;21.906;2022-08-14T09:11:55;98024.00;;;26.13;49.28
57574;BME280;43409;48.858;21.906;2022-08-14T09:14:23;98020.53;;;26.13;49.74
57574;BME280;43409;48.858;21.906;2022-08-14T09:16:49;98019.16;;;26.15;49.31
57574;BME280;43409;48.858;21.906;2022-08-14T09:19:15;98021.84;;;26.15;49.15
57574;BME280;43409;48.858;21.906;2022-08-14T09:21:41;98023.72;;;26.15;49.56
57574;BME280;43409;48.858;21.906;2022-08-14T09:24:07;98018.63;;;26.13;49.90
57574;BME280;43409;48.858;21.906;2022-08-14T09:26:34;98022.13;;;26.14;50.12
57574;BME280;43409;48.858;21.906;2022-08-14T09:29:00;98007.59;;;26.15;49.89
57574;BME280;43409;48.858;21.906;2022-08-14T09:31:27;98008.69;;;26.14;49.89
57574;BME280;43409;48.858;21.906;2022-08-14T09:39:04;98001.44;;;26.14;49.93
57574;BME280;43409;48.858;21.906;2022-08-14T09:46:55;97989.59;;;26.15;49.47
57574;BME280;43409;48.858;21.906;2022-08-14T09:49:35;97985.00;;;26.16;49.81
57574;BME280;43409;48.858;21.906;2022-08-14T09:52:12;97982.31;;;26.16;49.92
57574;BME280;43409;48.858;21.906;2022-08-14T09:57:05;97971.28;;;26.17;49.55
57574;BME280;43409;48.858;21.906;2022-08-14T09:59:45;97963.81;;;26.14;49.83
57574;BME280;43409;48.858;21.906;2022-08-14T10:02:23;97973.97;;;26.17;49.28
57574;BME280;43409;48.858;21.906;2022-08-14T10:05:05;97963.22;;;26.17;49.33
57574;BME280;43409;48.858;21.906;2022-08-14T10:07:36;97959.44;;;26.18;49.71
57574;BME280;43409;48.858;21.906;2022-08-14T10:10:26;97959.16;;;26.20;49.10
57574;BME280;43409;48.858;21.906;2022-08-14T10:12:52;97952.47;;;26.17;49.08
57574;BME280;43409;48.858;21.906;2022-08-14T10:15:22;97954.84;;;26.19;49.25
57574;BME280;43409;48.858;21.906;2022-08-14T10:17:49;97950.28;;;26.19;49.29
57574;BME280;43409;48.858;21.906;2022-08-14T10:20:16;97953.78;;;26.20;49.29
57574;BME280;43409;48.858;21.906;2022-08-14T10:22:46;97949.97;;;26.21;49.14
57574;BME280;43409;48.858;21.906;2022-08-14T10:25:13;97952.66;;;26.21;48.96
57574;BME280;43409;48.858;21.906;2022-08-14T10:27:40;97942.72;;;26.21;49.03
57574;BME280;43409;48.858;21.906;2022-08-14T10:30:16;97945.41;;;26.21;48.99
57574;BME280;43409;48.858;21.906;2022-08-14T10:32:46;97952.34;;;26.22;48.67
57574;BME280;43409;48.858;21.906;2022-08-14T10:35:13;97944.28;;;26.22;48.85
57574;BME280;43409;48.858;21.906;2022-08-14T10:37:41;97942.72;;;26.21;48.80
57574;BME280;43409;48.858;21.906;2022-08-14T10:40:08;97938.13;;;26.22;48.99
57574;BME280;43409;48.858;21.906;2022-08-14T10:42:38;97938.91;;;26.22;48.79
57574;BME280;43409;48.858;21.906;2022-08-14T10:45:24;97940.81;;;26.22;48.98
57574;BME280;43409;48.858;21.906;2022-08-14T10:47:54;97944.28;;;26.22;48.60
57574;BME280;43409;48.858;21.906;2022-08-14T10:50:34;97945.13;;;26.23;48.75
57574;BME280;43409;48.858;21.906;2022-08-14T10:53:01;97941.13;;;26.20;48.97
57574;BME280;43409;48.858;21.906;2022-08-14T10:55:35;97944.28;;;26.22;48.61
57574;BME280;43409;48.858;21.906;2022-08-14T10:58:05;97937.34;;;26.21;48.59
57574;BME280;43409;48.858;21.906;2022-08-14T11:00:35;97945.91;;;26.23;49.04
57574;BME280;43409;48.858;21.906;2022-08-14T11:03:09;97942.13;;;26.24;48.99
57574;BME280;43409;48.858;21.906;2022-08-14T11:05:45;97940.53;;;26.23;48.63
57574;BME280;43409;48.858;21.906;2022-08-14T11:08:12;97931.06;;;26.26;48.91
57574;BME280;43409;48.858;21.906;2022-08-14T11:10:55;97935.63;;;26.25;48.87
57574;BME280;43409;48.858;21.906;2022-08-14T11:13:23;97930.25;;;26.25;48.66
57574;BME280;43409;48.858;21.906;2022-08-14T11:15:51;97929.00;;;26.23;48.71
57574;BME280;43409;48.858;21.906;2022-08-14T11:18:17;97938.03;;;26.27;48.53
57574;BME280;43409;48.858;21.906;2022-08-14T11:20:48;97935.34;;;26.27;48.66
57574;BME280;43409;48.858;21.906;2022-08-14T11:23:15;97942.63;;;26.26;48.78
57574;BME280;43409;48.858;21.906;2022-08-14T11:25:44;97932.94;;;26.25;48.34
57574;BME280;43409;48.858;21.906;2022-08-14T11:28:12;97941.53;;;26.27;48.58
57574;BME280;43409;48.858;21.906;2022-08-14T11:30:43;97936.94;;;26.28;48.77
57574;BME280;43409;48.858;21.906;2022-08-14T11:33:09;97927.78;;;26.29;48.15
57574;BME280;43409;48.858;21.906;2022-08-14T11:35:35;97933.94;;;26.30;48.25
57574;BME280;43409;48.858;21.906;2022-08-14T11:38:06;97931.25;;;26.30;48.44
57574;BME280;43409;48.858;21.906;2022-08-14T11:40:34;97931.25;;;26.30;48.08
57574;BME280;43409;48.858;21.906;2022-08-14T11:43:02;97933.16;;;26.29;48.39
57574;BME280;43409;48.858;21.906;2022-08-14T11:45:29;97933.94;;;26.30;48.28
57574;BME280;43409;48.858;21.906;2022-08-14T11:50:41;97929.19;;;26.26;48.27
57574;BME280;43409;48.858;21.906;2022-08-14T11:53:18;97932.06;;;26.30;48.12
57574;BME280;43409;48.858;21.906;2022-08-14T11:55:44;97925.41;;;26.27;47.81
57574;BME280;43409;48.858;21.906;2022-08-14T11:58:11;97924.81;;;26.31;47.87
57574;BME280;43409;48.858;21.906;2022-08-14T12:00:52;97924.81;;;26.31;48.02
57574;BME280;43409;48.858;21.906;2022-08-14T12:03:41;97911.38;;;26.31;47.80
57574;BME280;43409;48.858;21.906;2022-08-14T12:06:12;97912.16;;;26.31;47.57
57574;BME280;43409;48.858;21.906;2022-08-14T12:08:39;97905.69;;;26.32;47.87
57574;BME280;43409;48.858;21.906;2022-08-14T12:11:07;97898.72;;;26.31;47.34
57574;BME280;43409;48.858;21.906;2022-08-14T12:13:33;97897.94;;;26.31;47.42
57574;BME280;43409;48.858;21.906;2022-08-14T12:16:08;97895.53;;;26.29;47.13
57574;BME280;43409;48.858;21.906;2022-08-14T12:18:40;97887.19;;;26.31;47.42
57574;BME280;43409;48.858;21.906;2022-08-14T12:23:42;97881.97;;;26.34;47.10
57574;BME280;43409;48.858;21.906;2022-08-14T12:26:17;97881.19;;;26.34;47.04
57574;BME280;43409;48.858;21.906;2022-08-14T12:28:48;97872.63;;;26.32;47.24
57574;BME280;43409;48.858;21.906;2022-08-14T12:31:16;97872.31;;;26.33;47.32
57574;BME280;43409;48.858;21.906;2022-08-14T12:33:55;97872.63;;;26.32;46.60
57574;BME280;43409;48.858;21.906;2022-08-14T12:36:20;97863.47;;;26.33;46.84
57574;BME280;43409;48.858;21.906;2022-08-14T12:38:47;97869.63;;;26.33;46.72
57574;BME280;43409;48.858;21.906;2022-08-14T12:41:17;97865.06;;;26.34;47.23
57574;BME280;43409;48.858;21.906;2022-08-14T12:43:55;97864.25;;;26.33;46.62
57574;BME280;43409;48.858;21.906;2022-08-14T12:46:35;97866.66;;;26.35;46.92
57574;BME280;43409;48.858;21.906;2022-08-14T12:49:10;97862.06;;;26.35;46.54
57574;BME280;43409;48.858;21.906;2022-08-14T12:51:36;97857.50;;;26.36;46.52
57574;BME280;43409;48.858;21.906;2022-08-14T12:54:14;97859.38;;;26.35;46.26
57574;BME280;43409;48.858;21.906;2022-08-14T12:56:40;97857.50;;;26.36;46.55
57574;BME280;43409;48.858;21.906;2022-08-14T12:59:05;97857.50;;;26.36;46.59
57574;BME280;43409;48.858;21.906;2022-08-14T13:01:34;97850.22;;;26.36;46.23
57574;BME280;43409;48.858;21.906;2022-08-14T13:06:32;97837.56;;;26.37;46.11
57574;BME280;43409;48.858;21.906;2022-08-14T13:08:58;97844.53;;;26.38;46.10
57574;BME280;43409;48.858;21.906;2022-08-14T13:11:41;97830.31;;;26.37;46.00
57574;BME280;43409;48.858;21.906;2022-08-14T13:14:09;97833.78;;;26.38;46.13
57574;BME280;43409;48.858;21.906;2022-08-14T13:16:37;97842.94;;;26.37;46.17
57574;BME280;43409;48.858;21.906;2022-08-14T13:19:03;97835.38;;;26.39;45.55
57574;BME280;43409;48.858;21.906;2022-08-14T13:21:29;97838.38;;;26.37;46.06